Terminal Aerodrome Forecast
Issued by NWS Central Illinois

Home | Current Version | Previous Version | Text Only | Print | Product List | Glossary On
Versions: 1 2 3 4 5 6 7 8 9 10 11 12 13 14 15 16 17 18 19 20 21 22 23 24 25 26
255
FTUS43 KILX 240520
TAFPIA
TAF
KPIA 240520Z 2406/2506 18006KT P6SM SCT045 OVC250
     FM241000 18005KT 5SM BR BKN250
     FM241500 21010KT P6SM SCT035 BKN250
     FM242000 24012KT P6SM VCTS SCT045CB BKN250=

USA.gov is the U.S. government's official web portal to all federal, state and local government web resources and services.